Time;durP1;ratioP1;P1;durP2;ratioP2;P2;SDS_P1;SDS_P2;PMS_P1;PMS_P2;Temp;Humidity;BMP_temperature;BMP_pressure;BME280_temperature;BME280_humidity;BME280_pressure;Samples;Min_cycle;Max_cycle;Signal;HPM_P1;HPM_P2
2021/08/21 00:01:54;;;;;;;8.95;4.40;;;;;;;15.89;83.72;100007.75;1670810;85;21196;-82
2021/08/21 00:04:20;;;;;;;6.37;4.75;;;;;;;15.84;84.08;100008.52;1678551;85;22105;-83
2021/08/21 00:06:47;;;;;;;6.55;4.33;;;;;;;15.81;84.40;100003.89;1677168;84;21122;-84
2021/08/21 00:09:14;;;;;;;8.95;5.12;;;;;;;15.78;84.51;100006.70;1681260;85;21079;-82
2021/08/21 00:11:41;;;;;;;8.68;4.65;;;;;;;15.77;85.04;100005.02;1680737;84;21119;-78
2021/08/21 00:14:09;;;;;;;6.12;4.70;;;;;;;15.73;85.17;100005.20;1683518;84;21741;-77
2021/08/21 00:16:37;;;;;;;8.83;4.92;;;;;;;15.69;85.59;100004.97;1682419;85;21124;-79
2021/08/21 00:19:04;;;;;;;7.70;4.75;;;;;;;15.65;86.11;99999.94;1681195;84;21116;-78
2021/08/21 00:21:31;;;;;;;6.55;5.08;;;;;;;15.62;86.24;100003.64;1681982;84;21017;-78
2021/08/21 00:23:58;;;;;;;7.08;5.15;;;;;;;15.59;86.51;100009.11;1681991;84;21537;-79
2021/08/21 00:26:25;;;;;;;9.60;5.47;;;;;;;15.54;86.79;100015.17;1682703;84;21140;-79
2021/08/21 00:28:52;;;;;;;9.13;5.03;;;;;;;15.50;87.35;100008.33;1681165;84;21176;-78
2021/08/21 00:31:20;;;;;;;4.45;3.85;;;;;;;15.47;87.69;100012.02;1682316;85;21560;-77
2021/08/21 00:33:47;;;;;;;7.62;4.92;;;;;;;15.45;87.98;100004.62;1681409;84;21179;-78
2021/08/21 00:36:14;;;;;;;7.47;5.28;;;;;;;15.45;88.02;100009.92;1680873;84;21132;-77
2021/08/21 00:38:41;;;;;;;7.20;4.85;;;;;;;15.44;88.11;100008.71;1681822;85;21040;-78
2021/08/21 00:41:07;;;;;;;8.08;5.53;;;;;;;15.44;88.37;100008.71;1681532;85;21846;-81
2021/08/21 00:43:37;;;;;;;8.30;3.85;;;;;;;15.43;88.33;100004.33;1681901;83;21176;-80
2021/08/21 00:46:04;;;;;;;5.33;4.30;;;;;;;15.44;88.71;100008.71;1681804;84;21080;-78
2021/08/21 00:48:30;;;;;;;8.63;5.60;;;;;;;15.42;88.64;100006.62;1680913;84;21100;-80
2021/08/21 00:51:01;;;;;;;7.65;5.10;;;;;;;15.42;88.81;100014.58;1680678;84;20978;-80
2021/08/21 00:53:31;;;;;;;7.92;5.45;;;;;;;15.41;89.11;100012.85;1679005;84;21140;-80
2021/08/21 00:55:58;;;;;;;;;;;;;;;15.40;89.06;100017.79;1660281;84;21068;-78
2021/08/21 00:58:28;;;;;;;8.10;5.28;;;;;;;15.39;89.44;100005.45;1683017;84;20185;-79
2021/08/21 01:00:56;;;;;;;6.25;5.30;;;;;;;15.38;89.65;100002.43;1679935;84;21116;-80
2021/08/21 01:03:23;;;;;;;7.53;5.33;;;;;;;15.36;89.86;100004.31;1681339;84;21088;-81
2021/08/21 01:05:49;;;;;;;6.10;5.00;;;;;;;15.34;89.91;100010.18;1682798;84;21495;-81
2021/08/21 01:08:16;;;;;;;7.20;5.65;;;;;;;15.33;90.06;100004.03;1683700;83;21112;-80
2021/08/21 01:10:46;;;;;;;7.55;5.20;;;;;;;15.31;90.26;100008.09;1652050;85;21120;-79
2021/08/21 01:13:13;;;;;;;7.58;6.12;;;;;;;15.30;90.76;100004.22;1685969;84;21722;-79
2021/08/21 01:15:41;;;;;;;13.03;6.08;;;;;;;15.29;90.97;100003.34;1685516;84;21071;-78
2021/08/21 01:18:11;;;;;;;6.55;5.12;;;;;;;15.28;91.59;100006.10;1698321;83;21122;-79
2021/08/21 01:20:38;;;;;;;8.20;6.35;;;;;;;15.27;91.63;100005.22;1690341;83;21095;-80
2021/08/21 01:23:05;;;;;;;7.28;4.78;;;;;;;15.27;91.69;100001.24;1693665;84;21068;-81
2021/08/21 01:25:37;;;;;;;7.55;5.60;;;;;;;15.26;91.77;100000.03;1685439;83;21132;-78
2021/08/21 01:28:05;;;;;;;8.93;5.62;;;;;;;15.26;92.02;99996.05;1698475;83;21106;-78
2021/08/21 01:30:50;;;;;;;6.12;4.03;;;;;;;15.26;92.03;99999.55;1692739;83;21545;-79
2021/08/21 01:33:25;;;;;;;9.55;5.30;;;;;;;15.23;92.54;99991.78;1705969;83;21362;-78
2021/08/21 01:35:53;;;;;;;8.58;5.90;;;;;;;15.26;92.77;100000.88;1706336;83;21195;-79
2021/08/21 01:38:21;;;;;;;5.12;4.28;;;;;;;15.27;92.85;99998.59;1704540;83;21107;-79
2021/08/21 01:40:53;;;;;;;10.55;6.78;;;;;;;15.28;92.97;99997.66;1705898;83;21141;-79
2021/08/21 01:43:21;;;;;;;6.08;4.08;;;;;;;15.29;93.41;100000.69;1705281;83;21621;-78
2021/08/21 01:45:48;;;;;;;8.10;6.40;;;;;;;15.31;93.73;99993.49;1702000;83;21102;-78
2021/08/21 01:48:17;;;;;;;11.57;6.30;;;;;;;15.33;94.26;99998.72;1703096;83;21120;-80
2021/08/21 01:50:44;;;;;;;10.10;6.35;;;;;;;15.34;94.31;100002.22;1687678;83;21596;-78
2021/08/21 01:53:16;;;;;;;8.05;5.83;;;;;;;15.36;94.33;100005.64;1682687;84;21025;-79
2021/08/21 01:55:45;;;;;;;8.23;6.42;;;;;;;15.35;94.21;100006.60;1682412;84;21939;-77
2021/08/21 01:58:20;;;;;;;8.88;5.25;;;;;;;15.36;94.11;100013.60;1679367;84;21543;-79
2021/08/21 02:00:54;;;;;;;;;;;;;;;15.34;94.22;100010.18;1685129;84;21114;-79
2021/08/21 02:03:22;;;;;;;7.95;5.47;;;;;;;15.33;94.28;100011.14;1683102;84;20902;-78
2021/08/21 02:05:48;;;;;;;11.18;6.10;;;;;;;15.31;94.72;100014.72;1681252;84;21268;-79
2021/08/21 02:08:15;;;;;;;12.50;6.78;;;;;;;15.31;94.90;100011.22;1682153;84;21585;-79
2021/08/21 02:10:42;;;;;;;15.15;6.53;;;;;;;15.30;94.79;100005.06;1683830;84;21147;-81
2021/08/21 02:13:10;;;;;;;11.80;6.30;;;;;;;15.30;94.72;100009.05;1681582;84;21065;-80
2021/08/21 02:15:36;;;;;;;6.17;4.90;;;;;;;15.29;94.77;100008.64;1682314;84;21073;-79
2021/08/21 02:18:03;;;;;;;6.60;4.12;;;;;;;15.27;94.77;100007.88;1683471;84;21123;-81
2021/08/21 02:20:47;;;;;;;7.17;5.60;;;;;;;15.27;95.05;100015.84;1681628;84;21625;-79
2021/08/21 02:23:16;;;;;;;8.33;5.58;;;;;;;15.25;95.12;100009.80;1680568;84;21056;-81
2021/08/21 02:25:44;;;;;;;7.75;6.40;;;;;;;15.22;95.16;100004.64;1683070;84;21085;-79
2021/08/21 02:28:17;;;;;;;9.70;6.62;;;;;;;15.21;95.21;100008.25;1677838;84;21492;-79
2021/08/21 02:30:40;;;;;;;8.90;6.15;;;;;;;15.20;95.21;100013.16;1685044;84;21590;-78
2021/08/21 02:33:07;;;;;;;11.03;6.15;;;;;;;15.18;95.49;100012.39;1686076;84;21141;-80
2021/08/21 02:35:33;;;;;;;7.47;5.67;;;;;;;15.17;96.19;100016.48;1680667;84;21057;-80
2021/08/21 02:38:02;;;;;;;8.40;6.12;;;;;;;15.14;96.62;100009.56;1679989;84;21168;-79
2021/08/21 02:40:30;;;;;;;11.22;7.03;;;;;;;15.11;96.61;100008.39;1683616;83;21060;-79
2021/08/21 02:42:57;;;;;;;7.30;4.62;;;;;;;15.09;96.92;100016.90;1684753;84;21079;-79
2021/08/21 02:45:24;;;;;;;10.88;7.00;;;;;;;15.08;97.21;100015.20;1684042;84;21109;-79
2021/08/21 02:47:50;;;;;;;10.10;6.60;;;;;;;15.06;97.55;100017.09;1681453;84;21198;-80
2021/08/21 02:50:18;;;;;;;7.37;6.00;;;;;;;15.06;97.83;100022.39;1680597;84;21129;-79
2021/08/21 02:52:45;;;;;;;9.50;6.90;;;;;;;15.06;97.98;100019.27;1682909;84;21049;-79
2021/08/21 02:55:12;;;;;;;6.10;5.37;;;;;;;15.07;98.43;100018.81;1680685;84;22256;-80
2021/08/21 02:57:41;;;;;;;9.70;7.30;;;;;;;15.08;98.36;100015.20;1682615;84;21882;-77
2021/08/21 03:00:09;;;;;;;9.58;6.50;;;;;;;15.08;98.35;100021.84;1678054;84;21116;-80
2021/08/21 03:02:40;;;;;;;9.00;6.85;;;;;;;15.08;98.41;100016.05;1656541;84;21705;-78
2021/08/21 03:05:08;;;;;;;8.80;6.62;;;;;;;15.09;98.63;100023.08;1653775;84;21128;-82
2021/08/21 03:07:35;;;;;;;9.00;5.80;;;;;;;15.09;98.81;100016.90;1654190;85;21072;-81
2021/08/21 03:10:05;;;;;;;13.25;7.35;;;;;;;15.11;98.68;100015.02;1655329;84;22181;-81
2021/08/21 03:12:52;;;;;;;10.13;6.58;;;;;;;15.12;98.70;100019.40;1656158;85;21084;-80
2021/08/21 03:15:19;;;;;;;9.58;6.65;;;;;;;15.14;98.73;100018.84;1656264;84;21169;-78
2021/08/21 03:17:45;;;;;;;10.10;7.25;;;;;;;15.15;98.62;100021.02;1666837;83;21755;-80
2021/08/21 03:20:13;;;;;;;10.18;7.20;;;;;;;15.18;98.58;100019.02;1684297;84;21621;-81
2021/08/21 03:22:40;;;;;;;9.90;6.53;;;;;;;15.28;98.61;100016.23;1682143;84;21124;-78
2021/08/21 03:25:08;;;;;;;10.48;6.60;;;;;;;15.44;98.21;100018.00;1692587;84;21628;-84
2021/08/21 03:27:36;;;;;;;6.45;5.58;;;;;;;15.62;97.67;100022.22;1684108;84;21091;-80
2021/08/21 03:30:05;;;;;;;8.60;6.42;;;;;;;15.83;97.04;100016.59;1682009;83;21083;-83
2021/08/21 03:32:32;;;;;;;8.28;6.60;;;;;;;16.06;96.13;100017.37;1683041;84;21087;-83
2021/08/21 03:35:00;;;;;;;10.08;5.20;;;;;;;16.30;95.16;100011.47;1688670;84;21732;-82
2021/08/21 03:37:29;;;;;;;11.43;6.50;;;;;;;16.51;93.89;100012.77;1686002;84;21217;-82
2021/08/21 03:39:57;;;;;;;7.50;5.80;;;;;;;16.74;92.65;100019.75;1687989;83;21052;-83
2021/08/21 03:42:24;;;;;;;7.50;5.62;;;;;;;16.94;92.00;100012.70;1683396;84;21590;-84
2021/08/21 03:44:57;;;;;;;7.55;6.03;;;;;;;17.26;90.73;100023.52;1688549;83;21115;-82
2021/08/21 03:47:24;;;;;;;9.78;5.15;;;;;;;17.54;89.33;100021.18;1681780;84;21240;-82
2021/08/21 03:49:50;;;;;;;7.50;5.40;;;;;;;17.84;87.88;100022.74;1684039;83;21523;-83
2021/08/21 03:52:18;;;;;;;8.23;5.55;;;;;;;18.13;86.17;100016.23;1684056;84;21115;-82
2021/08/21 03:54:46;;;;;;;5.83;4.15;;;;;;;18.42;84.84;100014.16;1679810;85;21108;-82
2021/08/21 03:57:13;;;;;;;8.13;5.97;;;;;;;18.74;83.17;100013.64;1673320;84;21165;-83
2021/08/21 03:59:40;;;;;;;8.05;6.28;;;;;;;19.01;81.29;100010.81;1662770;84;21200;-82
2021/08/21 04:02:08;;;;;;;8.83;5.78;;;;;;;19.26;80.25;100011.66;1679756;84;21603;-84
2021/08/21 04:04:35;;;;;;;6.22;5.15;;;;;;;19.55;78.63;100014.77;1676433;85;21156;-79
2021/08/21 04:07:03;;;;;;;6.20;5.20;;;;;;;19.85;76.96;100018.76;1680120;85;21196;-81
2021/08/21 04:09:32;;;;;;;8.05;5.47;;;;;;;20.08;75.75;100026.32;1681611;84;21894;-83
2021/08/21 04:12:01;;;;;;;6.35;5.33;;;;;;;20.28;74.72;100024.27;1669024;85;21134;-82
2021/08/21 04:14:31;;;;;;;6.20;5.50;;;;;;;20.53;73.36;100014.30;1676973;84;21168;-85
2021/08/21 04:16:59;;;;;;;6.90;5.17;;;;;;;20.74;72.53;100013.91;1677525;85;21450;-83
2021/08/21 04:19:26;;;;;;;7.15;4.80;;;;;;;21.00;70.74;100018.95;1660830;85;21080;-85
2021/08/21 04:21:55;;;;;;;6.20;5.12;;;;;;;21.22;69.82;100016.70;1679407;84;21123;-86
2021/08/21 04:24:35;;;;;;;;;;;;;;;21.50;68.76;100021.95;1683371;84;21186;-85
2021/08/21 04:27:03;;;;;;;7.55;4.95;;;;;;;21.71;67.32;100022.45;1685017;82;20222;-85
2021/08/21 04:29:33;;;;;;;8.95;5.60;;;;;;;21.79;66.77;100024.84;1672979;85;21780;-86
2021/08/21 04:32:02;;;;;;;7.78;4.75;;;;;;;22.01;66.03;100014.95;1680841;85;21192;-87
2021/08/21 04:34:34;;;;;;;8.13;5.22;;;;;;;22.28;64.21;100015.75;1681794;85;21088;-84
2021/08/21 04:37:00;;;;;;;8.40;5.70;;;;;;;22.54;63.81;100019.30;1673933;84;20999;-83
2021/08/21 04:39:26;;;;;;;10.95;5.40;;;;;;;22.81;62.48;100022.19;1681126;85;21069;-83
2021/08/21 04:41:54;;;;;;;7.55;5.05;;;;;;;23.00;62.06;100020.56;1664299;85;21187;-84
2021/08/21 04:44:20;;;;;;;7.97;4.90;;;;;;;23.27;61.05;100021.22;1679716;84;21110;-85
2021/08/21 04:46:47;;;;;;;6.00;4.62;;;;;;;23.61;59.71;100022.13;1682011;84;21073;-85
2021/08/21 04:49:14;;;;;;;7.85;4.80;;;;;;;23.82;58.64;100026.86;1682949;84;22137;-86
2021/08/21 04:51:41;;;;;;;5.15;4.20;;;;;;;24.04;57.60;100023.00;1684014;84;21088;-88
2021/08/21 04:54:09;;;;;;;9.20;3.85;;;;;;;24.25;56.46;100024.63;1685097;84;21067;-81
2021/08/21 04:56:37;;;;;;;5.78;4.65;;;;;;;24.31;55.85;100026.70;1681303;84;21088;-85
2021/08/21 04:59:11;;;;;;;8.50;3.77;;;;;;;24.49;55.41;100030.34;1663579;84;21156;-83
2021/08/21 05:01:38;;;;;;;13.13;4.90;;;;;;;24.70;55.02;100031.94;1681700;84;22246;-81
2021/08/21 05:04:05;;;;;;;7.85;4.55;;;;;;;25.07;54.08;100031.00;1632417;85;21151;-80
2021/08/21 05:06:34;;;;;;;11.88;5.10;;;;;;;25.33;52.68;100029.28;1657392;85;21288;-82
2021/08/21 05:09:01;;;;;;;7.72;4.33;;;;;;;25.46;52.17;100033.42;1656670;85;21030;-85
2021/08/21 05:11:29;;;;;;;12.30;4.58;;;;;;;25.63;51.27;100035.27;1682085;84;21129;-84
2021/08/21 05:13:56;;;;;;;5.60;3.95;;;;;;;25.87;51.00;100031.92;1685627;84;21995;-80
2021/08/21 05:16:23;;;;;;;8.68;4.47;;;;;;;26.20;49.70;100034.81;1683477;84;21028;-78
2021/08/21 05:19:05;;;;;;;6.65;3.58;;;;;;;26.45;49.46;100035.79;1649494;83;21144;-76
2021/08/21 05:21:30;;;;;;;5.85;4.53;;;;;;;26.77;48.36;100034.26;1625980;87;21155;-76
2021/08/21 05:23:58;;;;;;;4.67;3.95;;;;;;;27.06;47.37;100035.19;1644896;85;21080;-76
2021/08/21 05:26:25;;;;;;;6.33;4.03;;;;;;;27.29;46.86;100030.02;1636311;86;21087;-77
2021/08/21 05:28:52;;;;;;;11.83;4.33;;;;;;;27.57;46.24;100036.45;1644085;86;21730;-77
2021/08/21 05:31:18;;;;;;;4.17;3.67;;;;;;;27.93;45.15;100041.52;1637432;85;21151;-77
2021/08/21 05:33:45;;;;;;;7.78;4.30;;;;;;;28.24;44.25;100045.17;1682146;84;21029;-77
2021/08/21 05:36:13;;;;;;;5.20;3.80;;;;;;;28.56;43.41;100037.99;1680656;84;22262;-77
2021/08/21 05:38:39;;;;;;;4.65;3.65;;;;;;;28.74;42.38;100033.69;1681411;84;21184;-76
2021/08/21 05:41:06;;;;;;;6.05;4.22;;;;;;;28.81;42.17;100033.82;1682916;84;21057;-76
2021/08/21 05:43:32;;;;;;;7.65;4.00;;;;;;;28.97;41.57;100031.53;1679778;84;22267;-77
2021/08/21 05:46:00;;;;;;;10.82;4.40;;;;;;;29.17;41.08;100029.21;1681939;84;21093;-79
2021/08/21 05:48:28;;;;;;;3.92;3.17;;;;;;;29.41;40.87;100020.91;1680736;84;21064;-77
2021/08/21 05:50:54;;;;;;;4.10;3.40;;;;;;;29.67;39.93;100027.80;1683619;84;22110;-77
2021/08/21 05:53:24;;;;;;;3.95;3.55;;;;;;;29.76;39.73;100030.80;1680934;84;21060;-77
2021/08/21 05:55:54;;;;;;;5.87;3.60;;;;;;;29.94;39.42;100033.70;1682232;84;21576;-78
2021/08/21 05:58:22;;;;;;;3.72;3.20;;;;;;;30.29;38.66;100024.01;1681785;84;21381;-79
2021/08/21 06:00:48;;;;;;;4.08;3.42;;;;;;;30.47;37.77;100030.42;1627814;86;21097;-78
2021/08/21 06:03:17;;;;;;;5.00;3.10;;;;;;;30.60;37.61;100035.17;1646224;86;21125;-77
2021/08/21 06:05:44;;;;;;;7.33;3.15;;;;;;;30.88;36.52;100031.28;1650192;86;21112;-78
2021/08/21 06:08:11;;;;;;;5.55;3.40;;;;;;;31.01;35.76;100031.93;1626918;86;21161;-77
2021/08/21 06:10:41;;;;;;;5.22;3.33;;;;;;;31.10;36.07;100023.97;1683779;83;21602;-77
2021/08/21 06:13:09;;;;;;;5.85;3.05;;;;;;;31.39;35.78;100027.09;1690761;83;21148;-78
2021/08/21 06:15:37;;;;;;;4.67;3.08;;;;;;;31.63;35.28;100030.47;1681634;84;21970;-76
2021/08/21 06:18:05;;;;;;;5.80;3.20;;;;;;;31.75;35.35;100026.19;1708381;82;21092;-76
2021/08/21 06:20:32;;;;;;;5.55;3.35;;;;;;;31.91;35.11;100029.98;1721549;82;22143;-76
2021/08/21 06:22:58;;;;;;;8.03;3.00;;;;;;;32.11;34.08;100023.84;1729949;82;21633;-75
2021/08/21 06:25:27;;;;;;;6.20;3.35;;;;;;;32.26;33.97;100027.30;1721827;82;21026;-76
2021/08/21 06:27:54;;;;;;;9.15;3.17;;;;;;;32.40;33.58;100018.67;1707437;81;21925;-77
2021/08/21 06:30:21;;;;;;;11.85;5.45;;;;;;;32.67;32.47;100017.44;1729934;82;21155;-76
2021/08/21 06:32:48;;;;;;;8.55;3.40;;;;;;;32.81;32.21;100026.84;1727640;82;21104;-76
2021/08/21 06:35:14;;;;;;;12.90;3.30;;;;;;;33.10;31.38;100007.64;1721846;82;21556;-77
2021/08/21 06:37:41;;;;;;;3.70;2.80;;;;;;;33.21;31.12;100015.22;1729457;82;21058;-76
2021/08/21 06:40:10;;;;;;;8.18;3.10;;;;;;;33.20;31.08;100012.19;1734028;82;21511;-77
2021/08/21 06:42:36;;;;;;;8.23;3.40;;;;;;;33.42;30.77;100016.38;1731226;82;21636;-76
2021/08/21 06:45:09;;;;;;;4.15;3.12;;;;;;;33.49;30.17;100017.75;1719186;82;21658;-76
2021/08/21 06:47:36;;;;;;;11.83;3.52;;;;;;;33.42;30.16;100015.55;1732128;82;21111;-75
2021/08/21 06:50:04;;;;;;;5.67;3.20;;;;;;;33.32;30.65;100015.97;1716130;81;21064;-78
2021/08/21 06:52:31;;;;;;;5.95;3.45;;;;;;;33.33;30.33;100014.91;1721072;82;21128;-77
2021/08/21 06:54:58;;;;;;;4.15;2.92;;;;;;;33.40;30.02;100024.47;1731699;82;21079;-75
2021/08/21 06:57:24;;;;;;;8.15;3.05;;;;;;;33.53;29.47;100014.93;1736249;82;21007;-77
2021/08/21 06:59:51;;;;;;;7.53;3.25;;;;;;;33.56;29.33;100017.23;1719755;82;21095;-77
2021/08/21 07:02:20;;;;;;;5.08;2.77;;;;;;;33.36;29.33;100020.47;1716470;82;21055;-78
2021/08/21 07:06:18;;;;;;;3.98;2.98;;;;;;;33.45;29.56;100015.12;1790859;79;23337;-76
2021/08/21 07:08:47;;;;;;;4.03;3.00;;;;;;;33.20;29.09;100022.57;1686013;84;21012;-77
2021/08/21 07:11:14;;;;;;;9.68;3.22;;;;;;;33.00;29.69;100031.20;1679094;84;22025;-76
2021/08/21 07:13:46;;;;;;;3.52;2.80;;;;;;;32.94;29.81;100021.10;1699212;83;21655;-77
2021/08/21 07:16:15;;;;;;;5.78;3.10;;;;;;;33.05;29.51;100025.99;1717951;83;21045;-77
2021/08/21 07:18:44;;;;;;;6.83;2.67;;;;;;;33.33;29.22;100024.45;1723060;83;21064;-76
2021/08/21 07:21:10;;;;;;;4.85;2.90;;;;;;;33.45;28.80;100021.95;1687404;83;21084;-77
2021/08/21 07:23:38;;;;;;;4.67;2.50;;;;;;;33.59;28.30;100024.19;1700135;83;21127;-75
2021/08/21 07:26:04;;;;;;;4.37;2.58;;;;;;;33.58;28.16;100021.99;1704090;83;21372;-74
2021/08/21 07:28:31;;;;;;;6.28;2.90;;;;;;;33.58;27.10;100027.98;1712889;83;21019;-76
2021/08/21 07:31:00;;;;;;;4.53;2.60;;;;;;;33.48;27.57;100024.28;1719331;83;21018;-78
2021/08/21 07:33:28;;;;;;;6.53;2.77;;;;;;;33.25;28.39;100019.22;1715670;83;21108;-76
2021/08/21 07:35:55;;;;;;;3.65;2.30;;;;;;;33.32;28.33;100020.59;1720169;82;21113;-77
2021/08/21 07:38:21;;;;;;;4.17;2.85;;;;;;;33.37;28.29;100018.91;1711616;82;21607;-76
2021/08/21 07:40:49;;;;;;;7.95;2.98;;;;;;;33.59;27.38;100019.59;1719018;82;21459;-76
2021/08/21 07:43:16;;;;;;;7.80;2.40;;;;;;;33.67;26.62;100020.42;1723360;83;21117;-77
2021/08/21 07:45:45;;;;;;;7.30;2.70;;;;;;;33.64;27.14;100027.98;1718007;83;21075;-77
2021/08/21 07:48:10;;;;;;;4.80;2.87;;;;;;;33.88;26.66;100025.66;1725463;83;22123;-77
2021/08/21 07:50:39;;;;;;;3.72;2.62;;;;;;;34.02;26.10;100025.94;1730255;81;21092;-78
2021/08/21 07:53:08;;;;;;;5.80;2.42;;;;;;;34.08;25.92;100024.80;1721414;83;21021;-81
2021/08/21 07:55:36;;;;;;;6.58;2.50;;;;;;;34.19;25.98;100029.65;1711111;83;21084;-84
2021/08/21 07:58:04;;;;;;;4.75;2.70;;;;;;;34.30;26.54;100030.33;1738607;82;21052;-82
2021/08/21 08:00:32;;;;;;;9.40;3.20;;;;;;;34.45;25.93;100033.66;1723760;81;22225;-80
2021/08/21 08:02:58;;;;;;;4.87;2.77;;;;;;;34.55;25.20;100029.09;1717607;81;21064;-76
2021/08/21 08:05:25;;;;;;;5.50;2.50;;;;;;;34.46;24.87;100025.78;1709845;82;21109;-75
2021/08/21 08:07:52;;;;;;;3.42;2.58;;;;;;;34.35;25.53;100025.08;1701840;83;21047;-77
2021/08/21 08:10:20;;;;;;;3.55;2.37;;;;;;;34.29;25.62;100027.83;1699570;83;21118;-75
2021/08/21 08:12:49;;;;;;;4.20;2.70;;;;;;;33.88;25.42;100031.11;1703212;83;21041;-75
2021/08/21 08:15:17;;;;;;;5.80;2.40;;;;;;;33.39;26.06;100024.17;1695949;82;21373;-77
2021/08/21 08:17:44;;;;;;;6.35;2.50;;;;;;;32.98;26.91;100036.02;1760124;80;21115;-76
2021/08/21 08:20:11;;;;;;;4.33;2.80;;;;;;;32.37;26.82;100040.36;1749420;80;21040;-74
2021/08/21 08:22:37;;;;;;;5.33;2.65;;;;;;;31.94;27.33;100039.63;1746075;82;21028;-74
2021/08/21 08:25:05;;;;;;;4.33;2.40;;;;;;;31.45;28.41;100041.33;1746671;82;21119;-75
2021/08/21 08:27:38;;;;;;;12.80;2.85;;;;;;;31.02;29.11;100035.83;1747357;82;21057;-74
2021/08/21 08:30:05;;;;;;;3.80;2.50;;;;;;;30.94;28.81;100037.28;1748514;82;21571;-76
2021/08/21 08:32:32;;;;;;;2.80;2.33;;;;;;;31.02;27.70;100024.95;1747428;82;21095;-74
2021/08/21 08:34:58;;;;;;;7.20;2.58;;;;;;;31.05;28.34;100023.19;1747916;82;21087;-75
2021/08/21 08:37:28;;;;;;;8.35;2.80;;;;;;;31.24;28.49;100031.23;1748082;82;21016;-74
2021/08/21 08:39:55;;;;;;;2.98;2.20;;;;;;;31.51;28.40;100029.64;1749047;82;21041;-75
2021/08/21 08:42:21;;;;;;;10.53;2.90;;;;;;;31.64;28.06;100026.73;1752440;80;21009;-76
2021/08/21 08:44:49;;;;;;;4.78;2.50;;;;;;;31.62;27.26;100030.16;1760867;80;21104;-75
2021/08/21 08:47:18;;;;;;;5.40;2.80;;;;;;;31.47;27.06;100032.95;1762062;80;21516;-75
2021/08/21 08:49:46;;;;;;;4.83;2.62;;;;;;;31.24;27.73;100032.59;1762138;80;21092;-75
2021/08/21 08:52:15;;;;;;;9.80;3.00;;;;;;;31.22;28.29;100031.09;1746294;80;21042;-74
2021/08/21 08:54:42;;;;;;;3.08;2.15;;;;;;;31.45;28.24;100025.00;1767137;80;21116;-75
2021/08/21 08:57:10;;;;;;;3.98;2.50;;;;;;;31.56;27.66;100025.83;1759695;80;21029;-76
2021/08/21 08:59:36;;;;;;;3.27;2.40;;;;;;;31.86;27.26;100026.98;1741795;80;21072;-73
2021/08/21 09:02:03;;;;;;;8.80;2.30;;;;;;;32.25;26.32;100032.94;1755817;80;21105;-74
2021/08/21 09:04:30;;;;;;;8.05;2.62;;;;;;;32.33;25.76;100029.53;1754641;79;21048;-75
2021/08/21 09:06:56;;;;;;;4.15;2.30;;;;;;;32.32;26.00;100026.47;1762402;80;22293;-75
2021/08/21 09:09:23;;;;;;;8.65;2.20;;;;;;;32.50;25.78;100026.47;1746144;80;22301;-75
2021/08/21 09:11:53;;;;;;;5.95;2.08;;;;;;;32.63;25.51;100022.48;1768601;80;21037;-75
2021/08/21 09:14:31;;;;;;;4.00;2.12;;;;;;;32.54;25.44;100030.52;1750679;80;21111;-76
2021/08/21 09:17:20;;;;;;;12.07;2.60;;;;;;;32.69;24.55;100029.82;1755941;80;21069;-74
2021/08/21 09:19:48;;;;;;;8.30;2.35;;;;;;;32.84;24.43;100024.23;1767624;80;21053;-76
2021/08/21 09:22:16;;;;;;;10.68;2.02;;;;;;;33.07;23.81;100026.63;1767720;80;21740;-76
2021/08/21 09:24:43;;;;;;;8.95;2.20;;;;;;;33.00;23.91;100021.13;1751911;80;21104;-74
2021/08/21 09:27:20;;;;;;;2.95;2.00;;;;;;;33.19;23.93;100019.51;1714674;82;22071;-75
2021/08/21 09:30:08;;;;;;;2.67;1.60;;;;;;;33.45;23.01;100013.76;1702962;83;21068;-75
2021/08/21 09:32:34;;;;;;;2.77;1.80;;;;;;;33.41;22.79;100019.34;1757379;80;21746;-76
2021/08/21 09:35:11;;;;;;;2.37;1.60;;;;;;;33.34;21.85;100015.77;1762154;80;21017;-77
2021/08/21 09:37:50;;;;;;;4.25;2.10;;;;;;;33.25;22.47;100019.75;1747282;82;21568;-73
2021/08/21 09:40:36;;;;;;;2.08;1.42;;;;;;;33.35;22.54;100014.71;1748139;82;21080;-74
2021/08/21 09:43:07;;;;;;;3.30;1.72;;;;;;;33.44;21.65;100016.19;1751611;80;21557;-75
2021/08/21 09:45:39;;;;;;;2.90;2.00;;;;;;;33.35;21.67;100022.90;1751462;79;21076;-74
2021/08/21 09:48:07;;;;;;;2.90;2.08;;;;;;;33.41;22.74;100011.16;1749816;80;21063;-78
2021/08/21 09:50:35;;;;;;;2.60;1.57;;;;;;;33.63;21.91;100007.70;1658200;85;21124;-77
2021/08/21 09:53:06;;;;;;;3.60;1.98;;;;;;;33.13;21.47;100013.53;1686239;85;22228;-74
2021/08/21 09:55:36;;;;;;;4.35;2.00;;;;;;;32.96;21.59;100029.92;1773109;80;21087;-76
2021/08/21 09:58:06;;;;;;;3.67;1.80;;;;;;;32.90;21.99;100037.55;1761160;80;21048;-76
2021/08/21 10:00:38;;;;;;;3.70;1.82;;;;;;;32.88;21.96;100035.58;1752735;80;26593;-75
2021/08/21 10:03:04;;;;;;;4.83;1.80;;;;;;;32.84;22.26;100039.75;1747908;82;21524;-76
2021/08/21 10:05:32;;;;;;;3.02;1.92;;;;;;;32.76;22.22;100036.17;1749790;81;21515;-75
2021/08/21 10:10:33;;;;;;;3.37;1.65;;;;;;;32.58;22.60;100041.34;1778276;80;21024;-75
2021/08/21 10:13:06;;;;;;;5.35;2.12;;;;;;;32.46;22.81;100036.92;1765525;80;21036;-76
2021/08/21 10:15:29;;;;;;;13.53;2.77;;;;;;;32.67;22.83;100036.02;1765963;80;21068;-79
2021/08/21 10:17:55;;;;;;;3.47;1.90;;;;;;;32.84;22.83;100037.86;1768777;80;21462;-76
2021/08/21 10:20:25;;;;;;;7.83;2.10;;;;;;;32.84;22.84;100028.84;1764964;80;21127;-77
2021/08/21 10:22:51;;;;;;;1.80;1.65;;;;;;;32.79;22.00;100033.02;1766686;80;21558;-77
2021/08/21 10:25:18;;;;;;;6.42;2.10;;;;;;;32.79;22.46;100029.46;1762493;80;21065;-78
2021/08/21 10:28:02;;;;;;;13.90;3.17;;;;;;;32.78;22.33;100031.35;1766564;80;21095;-76
2021/08/21 10:30:49;;;;;;;5.08;2.33;;;;;;;32.80;22.21;100028.41;1752369;80;21076;-75
2021/08/21 10:33:16;;;;;;;5.17;1.90;;;;;;;32.78;22.34;100031.35;1758176;80;21025;-73
2021/08/21 10:35:54;;;;;;;3.15;2.12;;;;;;;32.75;22.87;100026.29;1746141;79;21370;-75
2021/08/21 10:38:36;;;;;;;5.03;2.08;;;;;;;33.00;22.77;100023.02;1767248;80;21366;-76
2021/08/21 10:41:14;;;;;;;5.47;2.05;;;;;;;33.20;22.32;100017.64;1759635;80;21000;-77
2021/08/21 10:43:50;;;;;;;3.67;2.08;;;;;;;33.13;21.80;100012.17;1772499;80;22242;-76
2021/08/21 10:46:34;;;;;;;5.33;2.05;;;;;;;33.15;22.24;100024.22;1764882;80;21044;-76
2021/08/21 10:49:07;;;;;;;5.65;1.75;;;;;;;33.34;21.76;100021.23;1759924;80;21047;-74
2021/08/21 10:51:45;;;;;;;3.45;2.10;;;;;;;33.42;21.61;100011.45;1766297;80;21529;-75
2021/08/21 10:54:32;;;;;;;3.15;2.25;;;;;;;33.48;21.79;100016.09;1771399;80;20968;-74
2021/08/21 10:57:20;;;;;;;1.98;1.80;;;;;;;33.60;21.75;100013.07;1774198;80;21037;-75
2021/08/21 10:59:47;;;;;;;2.87;2.02;;;;;;;33.48;21.88;100012.00;1755409;80;21058;-76
2021/08/21 11:02:35;;;;;;;4.42;2.55;;;;;;;33.31;22.36;100012.91;1766195;80;21007;-76
2021/08/21 11:05:15;;;;;;;7.95;2.33;;;;;;;33.21;22.64;100014.69;1751247;80;21062;-75
2021/08/21 11:07:44;;;;;;;4.10;2.22;;;;;;;33.30;22.45;100006.31;1751388;80;21596;-74
2021/08/21 11:10:16;;;;;;;4.00;2.10;;;;;;;33.43;21.94;100007.16;1770459;80;21960;-74
2021/08/21 11:12:47;;;;;;;3.22;2.15;;;;;;;33.50;22.35;100001.71;1771452;80;20989;-73
2021/08/21 11:15:23;;;;;;;5.78;2.27;;;;;;;33.56;22.03;100000.85;1769848;80;21061;-75
2021/08/21 11:17:50;;;;;;;6.22;1.87;;;;;;;33.39;22.13;100003.70;1762469;80;21073;-74
2021/08/21 11:20:34;;;;;;;4.35;2.20;;;;;;;33.26;22.35;100013.23;1780143;80;21024;-74
2021/08/21 11:23:15;;;;;;;4.33;1.80;;;;;;;33.35;21.67;100005.16;1776111;80;21839;-73
2021/08/21 11:25:44;;;;;;;3.42;1.75;;;;;;;33.29;21.81;99998.66;1765834;80;21033;-74
2021/08/21 11:28:20;;;;;;;3.47;2.10;;;;;;;33.26;22.16;100000.95;1769892;80;21833;-76
2021/08/21 11:31:10;;;;;;;2.65;2.00;;;;;;;33.29;21.82;100006.84;1765153;80;21480;-79
2021/08/21 11:33:39;;;;;;;2.10;1.62;;;;;;;33.23;21.83;100004.41;1768629;80;21060;-78
2021/08/21 11:36:08;;;;;;;2.90;1.98;;;;;;;33.15;22.07;100003.27;1758440;80;21110;-77
2021/08/21 11:38:39;;;;;;;3.35;2.20;;;;;;;33.07;22.13;99996.62;1754763;80;21108;-79